Time;durP1;ratioP1;P1;durP2;ratioP2;P2;SDS_P1;SDS_P2;PMS_P1;PMS_P2;Temp;Humidity;BMP_temperature;BMP_pressure;BME280_temperature;BME280_humidity;BME280_pressure;Samples;Min_cycle;Max_cycle;Signal;HPM_P1;HPM_P2
2022/04/04 05:00:30;;;;;;;9.30;4.93;;;6.00;99.90;;;;;;4879653;29;20135;-90
2022/04/04 05:05:47;;;;;;;8.15;4.70;;;6.00;99.90;;;;;;4878415;29;20469;-89
2022/04/04 05:08:19;;;;;;;5.65;4.85;;;6.10;99.90;;;;;;4924465;28;20044;-90
2022/04/04 05:11:09;;;;;;;;;;;;;;;;;;;;;
2022/04/04 05:17:34;;;;;;;9.02;4.32;;;6.50;99.90;;;;;;4891671;29;20076;-90
2022/04/04 05:21:11;;;;;;;;;;;;;;;;;;;;;
2022/04/04 05:27:17;;;;;;;6.13;4.20;;;6.70;99.90;;;;;;4765916;30;20036;-91
2022/04/04 05:30:24;;;;;;;5.90;4.20;;;6.80;99.90;;;;;;4761840;30;20138;-89
2022/04/04 05:32:55;;;;;;;7.55;5.05;;;6.80;99.90;;;;;;4747371;30;20093;-90
2022/04/04 05:35:36;;;;;;;10.55;4.80;;;6.90;99.90;;;;;;4824214;29;20472;-89
2022/04/04 05:38:22;;;;;;;10.50;4.97;;;6.90;99.90;;;;;;4887290;29;20047;-89
2022/04/04 05:45:09;;;;;;;9.43;4.85;;;7.00;99.90;;;;;;4897657;29;20044;-91
2022/04/04 05:48:02;;;;;;;8.10;4.72;;;7.00;99.90;;;;;;4919067;29;20105;-94
2022/04/04 05:54:30;;;;;;;8.30;4.82;;;7.10;99.90;;;;;;4947365;29;20033;-93
2022/04/04 05:57:20;;;;;;;6.15;4.60;;;7.20;99.90;;;;;;4964313;29;20031;-95
2022/04/04 06:00:21;;;;;;;7.07;4.53;;;7.30;99.90;;;;;;4957751;28;20035;-88
2022/04/04 06:03:02;;;;;;;10.43;5.05;;;7.40;99.90;;;;;;4948568;29;20028;-90
2022/04/04 06:12:15;;;;;;;5.60;4.22;;;7.50;99.90;;;;;;4915738;29;20044;-89
2022/04/04 06:14:54;;;;;;;6.05;4.50;;;7.50;99.90;;;;;;4902027;29;20517;-89
2022/04/04 06:17:52;;;;;;;6.50;4.50;;;7.60;99.90;;;;;;4957872;28;20020;-90
2022/04/04 06:20:47;;;;;;;9.38;4.50;;;7.70;99.90;;;;;;4935663;29;20083;-91
2022/04/04 06:23:30;;;;;;;6.53;4.32;;;7.80;99.90;;;;;;4931236;29;20034;-90
2022/04/04 06:29:23;;;;;;;6.05;4.28;;;8.00;99.90;;;;;;4950550;29;20110;-91
2022/04/04 06:33:02;;;;;;;7.18;4.50;;;8.10;99.90;;;;;;4945373;29;20491;-90
2022/04/04 06:35:35;;;;;;;6.65;4.28;;;8.20;99.90;;;;;;4903877;29;20294;-90
2022/04/04 06:45:30;;;;;;;9.00;4.50;;;8.50;99.90;;;;;;4872325;29;20048;-89
2022/04/04 06:48:17;;;;;;;11.68;4.32;;;8.60;99.90;;;;;;4743483;29;20074;-89
2022/04/04 06:51:48;;;;;;;;;;;;;;;;;;;;;
2022/04/04 06:57:37;;;;;;;12.18;4.65;;;8.80;99.90;;;;;;4819654;29;20081;-88
2022/04/04 07:00:31;;;;;;;6.68;4.10;;;8.90;99.90;;;;;;4880755;29;20067;-87
2022/04/04 07:04:02;;;;;;;;;;;;;;;;;;;;;
2022/04/04 07:07:17;;;;;;;16.63;4.20;;;9.00;99.90;;;;;;4896173;29;20721;-92
2022/04/04 07:30:46;;;;;;;;;;;;;;;;;;;;;
2022/04/04 07:37:16;;;;;;;4.43;3.72;;;9.90;99.90;;;;;;4781822;29;20066;-88
2022/04/04 07:40:17;;;;;;;6.03;4.13;;;10.00;99.90;;;;;;4776374;29;20052;-90
2022/04/04 07:43:09;;;;;;;;;;;;;;;;;;;;;
2022/04/04 07:45:51;;;;;;;5.68;3.70;;;10.20;99.90;;;;;;4776499;29;20055;-90
2022/04/04 07:48:17;;;;;;;3.53;3.22;;;10.30;99.90;;;;;;4981331;23;20105;-86
2022/04/04 07:51:37;;;;;;;4.90;2.97;;;10.40;99.90;;;;;;4989712;28;20062;-94
2022/04/04 07:54:18;;;;;;;5.60;3.50;;;10.60;99.90;;;;;;4958896;28;20620;-95
2022/04/04 07:56:45;;;;;;;6.38;3.65;;;10.70;99.90;;;;;;4986429;28;20120;-93
2022/04/04 07:59:20;;;;;;;6.65;3.13;;;10.70;99.90;;;;;;4991787;28;20041;-92
2022/04/04 08:02:16;;;;;;;3.85;3.10;;;10.80;99.90;;;;;;4978332;28;20034;-89
2022/04/04 08:04:42;;;;;;;8.43;3.83;;;10.80;99.90;;;;;;4966943;28;20038;-91
2022/04/04 08:07:46;;;;;;;9.70;3.25;;;10.90;99.90;;;;;;4985961;28;20029;-91
2022/04/04 08:18:18;;;;;;;5.05;3.08;;;11.20;99.90;;;;;;4904634;28;20045;-84
2022/04/04 08:20:50;;;;;;;10.05;3.10;;;11.20;99.90;;;;;;4974627;28;20038;-85
2022/04/04 08:23:17;;;;;;;4.68;3.17;;;11.40;99.90;;;;;;4973238;28;20030;-85
2022/04/04 08:28:58;;;;;;;5.40;2.72;;;11.50;99.90;;;;;;4970562;28;20051;-85
2022/04/04 08:31:29;;;;;;;5.68;3.42;;;11.50;99.90;;;;;;4996561;28;20037;-85
2022/04/04 08:34:36;;;;;;;4.60;3.25;;;11.30;99.90;;;;;;5011513;28;20037;-90
2022/04/04 08:37:33;;;;;;;7.88;3.53;;;11.20;99.90;;;;;;4979683;28;20027;-89
2022/04/04 08:40:20;;;;;;;6.45;3.40;;;11.30;99.90;;;;;;4978231;28;20101;-90
2022/04/04 08:43:13;;;;;;;8.18;3.65;;;11.30;99.90;;;;;;4991559;28;20030;-90
2022/04/04 08:46:24;;;;;;;;;;;;;;;;;;;;;
2022/04/04 08:49:11;;;;;;;9.25;2.72;;;11.20;99.90;;;;;;4981703;28;20046;-90
2022/04/04 08:52:03;;;;;;;6.90;3.10;;;11.00;99.90;;;;;;4966391;28;20027;-88
2022/04/04 08:55:34;;;;;;;5.55;3.28;;;11.00;99.90;;;;;;4978963;28;20043;-90
2022/04/04 08:58:10;;;;;;;4.47;3.70;;;10.80;99.90;;;;;;4990509;28;20097;-90
2022/04/04 09:00:45;;;;;;;4.93;3.10;;;10.80;99.90;;;;;;4980801;28;20524;-90
2022/04/04 09:03:26;;;;;;;7.90;3.22;;;10.90;99.90;;;;;;4969169;28;20106;-89
2022/04/04 09:06:25;;;;;;;6.68;3.03;;;10.90;99.90;;;;;;4982843;28;20048;-90
2022/04/04 09:08:58;;;;;;;;;;;11.10;99.90;;;;;;4970295;28;20047;-90
2022/04/04 09:11:34;;;;;;;;;;;11.30;99.90;;;;;;4990029;28;19917;-90
2022/04/04 09:14:31;;;;;;;8.85;3.30;;;11.20;99.90;;;;;;4976227;28;19910;-90
2022/04/04 09:17:34;;;;;;;6.43;3.53;;;11.30;99.90;;;;;;4973940;28;20038;-90
2022/04/04 09:24:07;;;;;;;5.22;3.17;;;11.20;99.90;;;;;;4837315;29;20056;-88
2022/04/04 09:27:07;;;;;;;9.60;3.10;;;11.40;99.90;;;;;;4860888;29;20117;-90
2022/04/04 09:29:42;;;;;;;4.60;2.90;;;11.80;99.90;;;;;;4844916;29;20037;-90
2022/04/04 09:32:15;;;;;;;4.65;3.33;;;12.30;99.90;;;;;;4877996;29;20051;-90
2022/04/04 09:35:28;;;;;;;;;;;;;;;;;;;;;
2022/04/04 09:41:43;;;;;;;7.70;2.92;;;12.00;99.90;;;;;;4996594;28;20099;-90
2022/04/04 09:47:56;;;;;;;6.05;3.33;;;11.80;99.90;;;;;;4913820;29;20086;-90
2022/04/04 09:51:00;;;;;;;3.60;2.65;;;11.60;99.90;;;;;;4905435;29;20554;-89
2022/04/04 09:53:39;;;;;;;5.47;2.88;;;11.60;99.90;;;;;;4928309;29;20110;-89
2022/04/04 09:56:09;;;;;;;6.57;2.90;;;11.70;99.90;;;;;;4960113;28;20038;-89
2022/04/04 09:59:19;;;;;;;5.28;2.90;;;11.70;99.90;;;;;;4967688;28;20442;-88
2022/04/04 10:12:25;;;;;;;8.60;3.30;;;11.70;99.90;;;;;;4848660;29;20028;-90
2022/04/04 10:15:07;;;;;;;7.32;2.88;;;11.70;99.90;;;;;;4873604;29;20048;-88
2022/04/04 10:18:27;;;;;;;7.57;3.03;;;11.60;99.90;;;;;;4883777;29;20043;-89
2022/04/04 10:21:59;;;;;;;8.55;2.80;;;11.70;99.90;;;;;;4976881;28;20030;-90
2022/04/04 10:25:32;;;;;;;4.78;2.95;;;11.50;99.90;;;;;;4949542;28;20035;-90
2022/04/04 10:28:06;;;;;;;6.78;3.05;;;11.20;99.90;;;;;;4957620;28;20086;-89
2022/04/04 10:31:27;;;;;;;4.90;2.88;;;11.20;99.90;;;;;;4976725;28;20038;-90
2022/04/04 10:34:13;;;;;;;9.65;3.10;;;11.20;99.90;;;;;;4958411;28;20027;-88
2022/04/04 10:37:31;;;;;;;3.67;2.85;;;11.10;99.90;;;;;;4974767;28;20035;-89
2022/04/04 10:44:21;;;;;;;5.85;3.33;;;11.10;99.90;;;;;;4896608;29;20056;-90
2022/04/04 10:47:47;;;;;;;4.97;2.80;;;11.20;99.90;;;;;;4903786;29;20036;-88
2022/04/04 10:50:46;;;;;;;6.05;3.20;;;11.20;99.90;;;;;;4857953;29;20055;-89
2022/04/04 10:53:55;;;;;;;3.15;2.72;;;11.40;99.90;;;;;;4933107;28;20116;-88
2022/04/04 10:59:48;;;;;;;6.25;3.33;;;11.50;99.90;;;;;;4900790;29;20547;-90
2022/04/04 11:02:57;;;;;;;4.70;3.10;;;11.40;99.90;;;;;;4918184;29;20075;-89
2022/04/04 11:09:22;;;;;;;8.48;3.75;;;11.40;99.90;;;;;;4967088;28;20549;-89
2022/04/04 11:12:23;;;;;;;6.95;3.33;;;11.20;99.90;;;;;;4965743;28;20450;-89
2022/04/04 11:15:10;;;;;;;4.18;3.00;;;11.10;99.90;;;;;;4975188;28;20113;-89
2022/04/04 11:18:32;;;;;;;6.22;3.53;;;11.20;99.90;;;;;;4959486;28;20093;-89
2022/04/04 11:21:35;;;;;;;5.20;3.33;;;11.30;99.90;;;;;;4932993;28;20046;-90
2022/04/04 11:24:10;;;;;;;5.95;3.60;;;11.30;99.90;;;;;;4976320;28;20035;-89
2022/04/04 11:26:45;;;;;;;7.05;3.50;;;11.50;99.90;;;;;;4959289;28;20039;-88
2022/04/04 11:29:41;;;;;;;5.15;3.83;;;11.70;99.90;;;;;;4955117;28;20114;-89
2022/04/04 11:32:40;;;;;;;9.18;4.13;;;11.60;99.90;;;;;;4922773;29;20127;-88
2022/04/04 11:35:44;;;;;;;6.30;4.00;;;11.80;99.90;;;;;;4952564;28;20121;-89
2022/04/04 11:38:19;;;;;;;6.57;4.65;;;11.70;99.90;;;;;;4953441;28;20031;-90
2022/04/04 11:40:56;;;;;;;5.53;4.05;;;12.00;99.90;;;;;;4954728;28;20035;-90
2022/04/04 11:43:29;;;;;;;8.15;4.30;;;12.00;99.90;;;;;;4968870;28;20430;-88
2022/04/04 11:46:39;;;;;;;7.93;4.35;;;12.10;99.90;;;;;;4966289;28;20106;-89
2022/04/04 11:49:29;;;;;;;8.20;4.07;;;12.10;99.90;;;;;;4968273;28;20114;-89
2022/04/04 11:52:33;;;;;;;6.40;3.80;;;11.90;99.90;;;;;;4980405;28;20126;-89
2022/04/04 11:55:13;;;;;;;7.03;4.00;;;12.00;99.90;;;;;;4981780;28;20109;-89
2022/04/04 11:57:58;;;;;;;5.13;3.88;;;11.80;99.90;;;;;;4986318;28;20061;-89
2022/04/04 12:01:12;;;;;;;3.75;3.35;;;11.70;99.90;;;;;;4978672;28;20074;-89
2022/04/04 12:03:54;;;;;;;5.70;3.58;;;11.80;99.90;;;;;;4967284;28;20133;-88
2022/04/04 12:06:45;;;;;;;8.70;4.47;;;11.70;99.90;;;;;;4984071;28;20027;-89
2022/04/04 12:09:13;;;;;;;6.63;4.70;;;11.60;99.90;;;;;;4980209;28;20047;-89
2022/04/04 12:11:42;;;;;;;7.15;3.60;;;11.70;99.90;;;;;;4982184;28;20058;-90
2022/04/04 12:14:11;;;;;;;6.53;3.97;;;13.10;99.90;;;;;;4981720;28;20026;-91
2022/04/04 12:16:53;;;;;;;5.50;3.38;;;16.10;97.90;;;;;;4983458;28;20026;-91
2022/04/04 12:19:45;;;;;;;6.25;3.80;;;18.10;93.80;;;;;;4978349;28;20613;-90
2022/04/04 12:25:10;;;;;;;3.97;3.08;;;19.00;84.20;;;;;;4979458;28;20038;-89
2022/04/04 12:28:04;;;;;;;8.07;3.53;;;18.80;81.20;;;;;;4978339;28;20035;-89
2022/04/04 12:30:50;;;;;;;9.65;3.25;;;18.30;75.80;;;;;;4977591;28;20987;-91
2022/04/04 12:33:21;;;;;;;8.75;4.15;;;18.90;78.90;;;;;;4977765;28;20019;-91
2022/04/04 12:35:50;;;;;;;5.65;3.00;;;19.00;79.60;;;;;;4979216;28;20057;-90
2022/04/04 12:39:15;;;;;;;5.20;3.15;;;19.90;72.30;;;;;;4977949;28;20038;-90
2022/04/04 12:42:23;;;;;;;8.60;2.88;;;19.00;76.10;;;;;;4929298;29;20067;-90
2022/04/04 12:44:57;;;;;;;4.50;3.38;;;16.20;84.50;;;;;;4982706;28;20114;-85
2022/04/04 12:48:04;;;;;;;16.05;3.28;;;14.60;90.50;;;;;;5025449;23;20091;-92
2022/04/04 12:50:41;;;;;;;6.05;3.20;;;14.30;93.20;;;;;;4948129;29;20039;-88
2022/04/04 12:53:48;;;;;;;7.15;3.25;;;13.50;94.80;;;;;;4971989;28;20020;-90
2022/04/04 12:56:14;;;;;;;5.25;3.35;;;13.10;97.00;;;;;;4955220;28;20532;-92
2022/04/04 12:58:40;;;;;;;6.05;3.30;;;12.80;97.30;;;;;;4951495;28;20061;-90
2022/04/04 13:01:17;;;;;;;9.13;3.72;;;12.80;98.20;;;;;;4960645;28;20038;-89
2022/04/04 13:04:15;;;;;;;9.82;3.80;;;12.80;99.60;;;;;;4962143;28;20027;-89
2022/04/04 13:07:05;;;;;;;7.85;3.13;;;13.00;99.90;;;;;;4940168;29;20566;-86
2022/04/04 13:09:34;;;;;;;5.05;3.63;;;13.40;98.30;;;;;;4941215;28;20225;-87
2022/04/04 13:12:46;;;;;;;7.15;3.20;;;13.20;99.90;;;;;;4923514;29;20035;-91
2022/04/04 13:16:19;;;;;;;4.28;3.53;;;12.60;99.90;;;;;;4893510;29;20036;-87
2022/04/04 13:19:01;;;;;;;5.57;3.17;;;12.70;99.90;;;;;;4885959;29;20037;-91
2022/04/04 13:21:41;;;;;;;5.15;3.55;;;12.50;99.90;;;;;;4948762;29;20039;-88
2022/04/04 13:24:33;;;;;;;;;;;;;;;;;;;;;
2022/04/04 13:27:08;;;;;;;5.05;3.38;;;12.00;99.90;;;;;;4953886;28;20024;-87
2022/04/04 13:29:49;;;;;;;4.80;3.08;;;12.20;99.90;;;;;;4967427;28;20098;-94
2022/04/04 13:32:18;;;;;;;4.10;3.30;;;12.00;99.90;;;;;;4940580;29;20019;-89
2022/04/04 13:35:23;;;;;;;3.50;3.00;;;11.70;99.90;;;;;;4923043;29;20028;-89
2022/04/04 13:38:27;;;;;;;;;;;;;;;;;;;;;
2022/04/04 13:40:42;;;;;;;6.28;2.97;;;11.80;99.90;;;;;;4887828;29;20104;-89
2022/04/04 13:43:08;;;;;;;7.03;3.35;;;12.40;99.90;;;;;;4945713;28;20051;-90
2022/04/04 13:45:55;;;;;;;5.18;3.58;;;12.30;99.90;;;;;;4908568;29;20496;-91
2022/04/04 13:48:31;;;;;;;10.85;3.38;;;12.00;99.90;;;;;;4941630;29;20054;-93
2022/04/04 13:50:57;;;;;;;4.07;3.13;;;11.80;99.90;;;;;;4936798;29;20125;-88
2022/04/04 13:53:24;;;;;;;7.00;3.15;;;11.70;99.90;;;;;;4943727;28;20031;-91
2022/04/04 13:56:23;;;;;;;10.48;3.40;;;11.60;99.90;;;;;;4943325;29;20170;-91
2022/04/04 13:59:00;;;;;;;5.18;3.55;;;11.60;99.90;;;;;;5023144;23;20835;-90
2022/04/04 14:01:50;;;;;;;5.40;3.28;;;11.60;99.90;;;;;;5009493;28;20030;-96
2022/04/04 14:04:37;;;;;;;7.20;3.20;;;11.80;99.90;;;;;;5002381;28;20029;-89
2022/04/04 14:07:08;;;;;;;6.97;3.42;;;12.20;99.90;;;;;;5011504;28;20030;-89
2022/04/04 14:09:46;;;;;;;4.70;3.38;;;12.70;99.90;;;;;;5023790;28;20050;-92
2022/04/04 14:12:20;;;;;;;6.38;3.83;;;12.80;99.90;;;;;;5031481;28;20072;-89
2022/04/04 14:14:46;;;;;;;8.85;4.32;;;13.00;99.90;;;;;;5005990;28;20061;-92
2022/04/04 14:17:20;;;;;;;10.60;3.55;;;13.20;99.90;;;;;;5001501;28;20026;-93
2022/04/04 14:19:53;;;;;;;12.00;3.40;;;16.00;99.90;;;;;;5023249;28;20484;-93
2022/04/04 14:22:25;;;;;;;7.93;3.10;;;19.30;92.70;;;;;;4992962;28;20029;-91
2022/04/04 14:25:05;;;;;;;4.87;2.97;;;20.80;88.20;;;;;;5006328;28;20037;-95
2022/04/04 14:27:34;;;;;;;5.30;3.35;;;20.30;82.10;;;;;;4999508;28;20010;-87
2022/04/04 14:30:03;;;;;;;4.90;3.00;;;19.30;86.10;;;;;;5001591;28;20065;-94
2022/04/04 14:32:29;;;;;;;4.30;3.28;;;18.70;87.50;;;;;;5004098;28;20026;-95
2022/04/04 14:35:14;;;;;;;3.92;3.10;;;19.70;84.10;;;;;;5024338;28;20033;-95
2022/04/04 14:37:43;;;;;;;6.47;3.17;;;20.50;79.80;;;;;;5016779;28;20144;-95
2022/04/04 14:40:14;;;;;;;3.67;2.90;;;20.60;76.00;;;;;;5030745;28;20144;-90
2022/04/04 14:42:42;;;;;;;5.07;3.10;;;20.50;76.70;;;;;;4976875;28;20092;-93
2022/04/04 14:45:22;;;;;;;7.30;2.63;;;20.10;77.90;;;;;;4969583;28;20041;-91
2022/04/04 14:47:48;;;;;;;5.72;3.40;;;20.70;74.50;;;;;;4979363;28;20096;-91
2022/04/04 14:50:33;;;;;;;6.95;3.08;;;20.10;77.10;;;;;;4981774;28;20482;-90
2022/04/04 14:52:59;;;;;;;10.93;3.20;;;19.80;77.30;;;;;;4985963;28;20511;-89
2022/04/04 14:55:35;;;;;;;13.98;3.30;;;18.70;80.00;;;;;;5005595;28;20016;-91
2022/04/04 14:58:10;;;;;;;3.38;3.08;;;18.50;81.10;;;;;;5010827;28;20034;-92
2022/04/04 15:00:44;;;;;;;5.65;2.90;;;18.20;81.20;;;;;;5002158;28;20045;-91
2022/04/04 15:03:35;;;;;;;5.25;3.58;;;18.40;81.80;;;;;;4982914;28;20022;-95
2022/04/04 15:06:22;;;;;;;8.88;3.15;;;19.10;77.80;;;;;;4975094;28;20624;-94
2022/04/04 15:09:18;;;;;;;6.05;3.33;;;18.70;77.90;;;;;;4995270;28;20030;-93
2022/04/04 15:12:31;;;;;;;5.85;2.75;;;19.00;77.70;;;;;;5006852;28;20057;-95
2022/04/04 15:14:58;;;;;;;7.20;3.00;;;18.80;79.00;;;;;;4989717;28;20026;-91
2022/04/04 15:17:30;;;;;;;4.30;2.90;;;18.20;79.50;;;;;;4982734;28;20109;-92
2022/04/04 15:20:10;;;;;;;5.38;2.80;;;17.70;78.50;;;;;;4955929;28;20027;-95
2022/04/04 15:23:01;;;;;;;3.40;2.78;;;17.90;81.30;;;;;;4975548;28;20041;-92
2022/04/04 15:25:39;;;;;;;5.18;3.15;;;18.70;78.00;;;;;;5010517;28;20026;-94
2022/04/04 15:28:58;;;;;;;8.57;3.72;;;18.60;79.90;;;;;;5010491;28;20038;-90
2022/04/04 15:31:24;;;;;;;5.30;2.90;;;18.30;79.30;;;;;;5002962;28;20042;-88
2022/04/04 15:34:16;;;;;;;12.30;3.40;;;18.80;78.80;;;;;;4970486;28;20027;-91
2022/04/04 15:36:47;;;;;;;5.57;3.43;;;20.30;77.00;;;;;;5000923;28;20178;-88
2022/04/04 15:39:16;;;;;;;5.57;2.90;;;19.30;75.10;;;;;;4981824;28;20030;-89
2022/04/04 15:41:45;;;;;;;5.35;2.70;;;18.60;78.30;;;;;;4977773;28;20118;-91
2022/04/04 15:44:13;;;;;;;5.18;3.10;;;18.00;79.30;;;;;;4977154;28;20022;-87
2022/04/04 15:46:43;;;;;;;5.88;3.05;;;17.40;81.30;;;;;;4982812;28;20042;-91
2022/04/04 15:51:46;;;;;;;3.70;2.97;;;18.10;81.60;;;;;;4960002;28;20054;-91
2022/04/04 15:54:11;;;;;;;6.55;3.00;;;17.80;80.40;;;;;;4950701;28;20063;-88
2022/04/04 15:56:45;;;;;;;8.00;2.97;;;17.50;82.00;;;;;;4948902;29;20024;-92
2022/04/04 15:59:37;;;;;;;;;;;;;;;;;;;;;
2022/04/04 16:02:15;;;;;;;6.88;3.17;;;17.60;82.00;;;;;;4976599;28;20030;-95
2022/04/04 16:05:12;;;;;;;5.53;2.92;;;17.60;82.50;;;;;;4955692;29;20034;-92
2022/04/04 16:07:41;;;;;;;3.90;3.00;;;17.00;84.50;;;;;;4949425;28;20640;-91
2022/04/04 16:10:19;;;;;;;4.63;2.58;;;16.40;86.50;;;;;;4968015;28;20090;-92
2022/04/04 16:12:48;;;;;;;4.22;3.00;;;16.40;85.80;;;;;;4933261;28;20035;-89
2022/04/04 16:15:29;;;;;;;9.15;3.47;;;16.60;86.50;;;;;;4945383;29;20188;-93
2022/04/04 16:21:04;;;;;;;7.78;3.13;;;16.90;85.70;;;;;;5083040;23;20108;-93
2022/04/04 16:23:58;;;;;;;5.97;3.15;;;16.00;87.30;;;;;;5215933;23;20045;-94
2022/04/04 16:26:53;;;;;;;5.97;3.00;;;15.50;90.30;;;;;;5013138;28;20460;-92
2022/04/04 16:29:20;;;;;;;5.47;2.90;;;15.60;90.40;;;;;;5027699;28;20038;-92
2022/04/04 16:31:55;;;;;;;7.93;2.80;;;15.50;90.80;;;;;;4989985;28;20625;-88
2022/04/04 16:34:21;;;;;;;8.65;5.60;;;14.90;91.00;;;;;;5030187;23;20025;-89
2022/04/04 16:36:51;;;;;;;5.13;3.95;;;14.70;92.60;;;;;;5000046;28;20046;-89
2022/04/04 16:39:27;;;;;;;4.28;3.25;;;15.00;92.60;;;;;;5001839;28;20121;-89
2022/04/04 16:42:13;;;;;;;4.85;3.05;;;14.70;92.00;;;;;;5008488;28;20022;-88
2022/04/04 16:44:39;;;;;;;3.85;3.45;;;14.00;93.50;;;;;;4979173;28;20565;-89
2022/04/04 16:47:11;;;;;;;6.72;4.05;;;13.30;95.00;;;;;;4979236;28;20026;-89
2022/04/04 16:49:43;;;;;;;4.47;3.78;;;12.50;97.20;;;;;;4997312;28;20079;-90
2022/04/04 16:52:12;;;;;;;;;;;12.00;99.30;;;;;;4982975;28;20385;-89
2022/04/04 16:54:41;;;;;;;7.07;3.97;;;11.50;99.90;;;;;;4995599;28;19914;-92
2022/04/04 16:57:07;;;;;;;4.40;3.28;;;11.20;99.90;;;;;;4985489;28;20101;-88
2022/04/04 16:59:37;;;;;;;4.45;3.00;;;11.00;99.90;;;;;;4980802;28;20023;-93
2022/04/04 17:02:16;;;;;;;4.05;3.17;;;10.60;99.90;;;;;;4973387;28;20458;-87
2022/04/04 17:04:56;;;;;;;6.30;3.30;;;10.40;99.90;;;;;;4967565;29;20216;-92
2022/04/04 17:07:23;;;;;;;7.50;3.47;;;10.30;99.90;;;;;;4979311;28;20065;-85
2022/04/04 17:10:00;;;;;;;4.68;3.25;;;10.10;99.90;;;;;;4996713;28;20035;-92
2022/04/04 17:12:50;;;;;;;4.70;3.05;;;10.10;99.90;;;;;;4984543;28;20382;-92
2022/04/04 17:15:20;;;;;;;5.88;2.97;;;10.00;99.90;;;;;;4981687;28;20043;-90
2022/04/04 17:17:47;;;;;;;4.30;2.72;;;9.90;99.90;;;;;;4984171;28;20038;-91
2022/04/04 17:20:40;;;;;;;5.38;3.30;;;9.90;99.90;;;;;;5004606;28;20053;-86
2022/04/04 17:23:14;;;;;;;3.85;3.00;;;9.90;99.90;;;;;;5003785;28;20050;-85
2022/04/04 17:25:47;;;;;;;3.92;3.00;;;9.80;99.90;;;;;;4980430;28;20073;-92
2022/04/04 17:28:45;;;;;;;3.53;3.10;;;9.80;99.90;;;;;;4983899;28;20022;-91
2022/04/04 17:31:12;;;;;;;4.03;3.08;;;9.80;99.90;;;;;;4985776;28;20047;-87
2022/04/04 17:33:45;;;;;;;3.10;2.47;;;9.60;99.90;;;;;;4982598;28;20055;-90
2022/04/04 17:36:14;;;;;;;5.38;2.90;;;9.60;99.90;;;;;;4969098;28;20169;-92
2022/04/04 17:38:56;;;;;;;5.72;3.22;;;9.50;99.90;;;;;;4987408;28;20027;-85
2022/04/04 17:41:26;;;;;;;5.72;3.35;;;9.50;99.90;;;;;;4990034;28;20043;-89
2022/04/04 17:43:53;;;;;;;3.25;2.75;;;9.50;99.90;;;;;;4963734;28;20121;-87
2022/04/04 17:46:24;;;;;;;4.25;2.58;;;9.40;99.90;;;;;;4984051;28;20109;-92
2022/04/04 17:48:51;;;;;;;4.80;3.00;;;9.40;99.90;;;;;;5001859;28;20038;-86
2022/04/04 17:51:20;;;;;;;2.72;2.50;;;9.50;99.90;;;;;;4978444;28;20442;-89
2022/04/04 17:53:56;;;;;;;9.55;3.20;;;9.40;99.90;;;;;;4980201;28;20037;-90
2022/04/04 17:56:23;;;;;;;3.72;3.10;;;9.40;99.90;;;;;;4983173;28;20122;-89
2022/04/04 17:58:49;;;;;;;8.40;3.88;;;9.40;99.90;;;;;;4974852;28;20027;-87
2022/04/04 18:01:35;;;;;;;4.03;3.50;;;9.40;99.90;;;;;;4970453;28;20489;-89
2022/04/04 18:04:01;;;;;;;5.75;3.63;;;9.30;99.90;;;;;;4986495;28;20030;-92
2022/04/04 18:06:27;;;;;;;5.82;3.65;;;9.40;99.90;;;;;;4993478;28;20022;-86
2022/04/04 18:08:56;;;;;;;4.60;3.78;;;9.30;99.90;;;;;;4985063;28;20041;-86
2022/04/04 18:11:22;;;;;;;4.20;3.50;;;9.30;99.90;;;;;;4985602;28;20502;-88
2022/04/04 18:13:48;;;;;;;8.70;5.05;;;9.30;99.90;;;;;;4975242;28;20049;-88
2022/04/04 18:16:18;;;;;;;9.38;7.93;;;9.30;99.90;;;;;;4966280;28;20482;-89
2022/04/04 18:18:44;;;;;;;11.50;7.57;;;9.30;99.90;;;;;;4978846;28;20106;-87
2022/04/04 18:21:10;;;;;;;9.82;5.35;;;9.20;99.90;;;;;;4980054;28;20037;-88
2022/04/04 18:23:36;;;;;;;6.03;5.25;;;9.10;99.90;;;;;;4978219;28;20034;-87
2022/04/04 18:26:02;;;;;;;15.52;5.75;;;9.10;99.90;;;;;;4977791;28;20023;-86
2022/04/04 18:28:28;;;;;;;7.55;5.05;;;9.10;99.90;;;;;;4995298;28;20033;-87
2022/04/04 18:30:56;;;;;;;7.25;4.85;;;9.00;99.90;;;;;;4990339;28;20034;-87
2022/04/04 18:33:29;;;;;;;6.78;4.68;;;9.00;99.90;;;;;;4974452;28;20524;-87
2022/04/04 18:35:55;;;;;;;7.18;4.95;;;8.90;99.90;;;;;;5001000;28;20184;-86
2022/04/04 18:38:24;;;;;;;9.07;5.07;;;8.90;99.90;;;;;;5000185;28;20022;-87
2022/04/04 18:41:14;;;;;;;8.40;4.93;;;8.90;99.90;;;;;;5006541;28;20062;-87
2022/04/04 18:43:40;;;;;;;6.82;4.97;;;8.80;99.90;;;;;;4995958;28;20031;-87
2022/04/04 18:46:06;;;;;;;6.97;4.82;;;8.80;99.90;;;;;;4971580;28;20026;-87
2022/04/04 18:48:32;;;;;;;6.97;5.40;;;8.70;99.90;;;;;;5000099;28;20026;-85
2022/04/04 18:50:58;;;;;;;6.95;5.82;;;8.70;99.90;;;;;;4980829;28;20465;-88
2022/04/04 18:53:24;;;;;;;7.93;6.07;;;8.80;99.90;;;;;;4980182;28;20053;-87
2022/04/04 18:55:55;;;;;;;7.72;5.63;;;8.90;99.90;;;;;;4998491;28;20058;-87
2022/04/04 18:58:21;;;;;;;7.95;5.00;;;9.10;99.90;;;;;;5005148;28;20022;-87
2022/04/04 19:00:47;;;;;;;7.38;5.03;;;9.20;99.90;;;;;;4990238;28;20045;-87
2022/04/04 19:03:15;;;;;;;6.68;4.97;;;9.30;99.90;;;;;;5005982;28;20039;-86
2022/04/04 19:05:44;;;;;;;6.15;5.28;;;9.40;99.90;;;;;;4998034;28;20034;-86
2022/04/04 19:08:10;;;;;;;6.32;5.18;;;9.50;99.90;;;;;;4996018;28;20046;-87
2022/04/04 19:10:37;;;;;;;7.47;4.95;;;9.60;99.90;;;;;;4989164;28;20054;-87
2022/04/04 19:13:03;;;;;;;5.03;4.50;;;9.70;99.90;;;;;;4987908;28;20056;-87
2022/04/04 19:15:30;;;;;;;8.13;4.85;;;9.70;99.90;;;;;;4976106;28;20038;-87
2022/04/04 19:17:57;;;;;;;8.23;4.95;;;9.70;99.90;;;;;;4978417;28;20023;-86
2022/04/04 19:20:34;;;;;;;7.30;4.70;;;9.80;99.90;;;;;;4989497;28;20030;-89
2022/04/04 19:23:00;;;;;;;11.80;5.30;;;9.80;99.90;;;;;;4975326;28;20497;-87
2022/04/04 19:25:28;;;;;;;5.60;4.65;;;9.90;99.90;;;;;;4972756;28;20030;-87
2022/04/04 19:27:56;;;;;;;6.38;4.93;;;9.90;99.90;;;;;;4972630;28;20489;-87
2022/04/04 19:30:23;;;;;;;12.27;6.18;;;9.90;99.90;;;;;;4985004;28;20035;-87
2022/04/04 19:32:48;;;;;;;24.25;6.95;;;9.90;99.90;;;;;;4981614;28;20073;-88
2022/04/04 19:35:15;;;;;;;8.20;6.40;;;9.90;99.90;;;;;;4994002;28;20050;-91
2022/04/04 19:38:02;;;;;;;9.57;7.03;;;9.90;99.90;;;;;;4992481;28;20109;-89
2022/04/04 19:40:37;;;;;;;9.00;6.47;;;9.80;99.90;;;;;;4986559;28;20034;-87
2022/04/04 19:43:09;;;;;;;11.88;6.68;;;9.80;99.90;;;;;;5003840;28;20045;-86
2022/04/04 19:45:54;;;;;;;;;;;9.80;99.90;;;;;;4994664;28;20043;-91
2022/04/04 19:48:21;;;;;;;12.02;6.80;;;9.80;99.90;;;;;;4989570;28;19905;-92
2022/04/04 19:50:55;;;;;;;8.60;6.40;;;9.70;99.90;;;;;;5004769;28;20030;-92
2022/04/04 19:53:22;;;;;;;9.10;5.90;;;9.80;99.90;;;;;;4992102;28;20038;-90
2022/04/04 19:55:54;;;;;;;14.52;7.18;;;9.70;99.90;;;;;;5010583;28;20035;-90
2022/04/04 19:58:54;;;;;;;8.02;5.72;;;9.80;99.90;;;;;;5001745;28;20041;-94
2022/04/04 20:01:43;;;;;;;11.65;6.80;;;9.70;99.90;;;;;;4986108;28;20512;-91
2022/04/04 20:04:10;;;;;;;9.80;6.60;;;9.70;99.90;;;;;;5122824;23;20112;-91
2022/04/04 20:06:47;;;;;;;10.70;6.28;;;9.70;99.90;;;;;;5025337;28;20022;-89
2022/04/04 20:09:14;;;;;;;8.68;5.70;;;9.70;99.90;;;;;;5009168;23;20094;-87
2022/04/04 20:14:18;;;;;;;8.75;5.53;;;9.50;99.90;;;;;;5057166;23;19917;-94
2022/04/04 20:16:47;;;;;;;7.72;6.15;;;9.40;99.90;;;;;;5005688;28;20034;-92
2022/04/04 20:19:22;;;;;;;8.95;5.57;;;9.40;99.90;;;;;;5030037;28;20022;-90
2022/04/04 20:21:48;;;;;;;10.43;6.25;;;9.30;99.90;;;;;;5000401;28;20057;-91
2022/04/04 20:24:34;;;;;;;7.20;5.82;;;9.20;99.90;;;;;;5010451;28;20044;-93
2022/04/04 20:27:00;;;;;;;10.07;6.65;;;9.00;99.90;;;;;;5126381;23;20119;-88
2022/04/04 20:29:25;;;;;;;8.52;5.70;;;8.90;99.90;;;;;;4991880;28;20026;-91
2022/04/04 20:31:58;;;;;;;7.75;6.07;;;8.80;99.90;;;;;;4984590;28;20026;-88
2022/04/04 20:34:23;;;;;;;12.95;6.50;;;8.60;99.90;;;;;;5005793;28;20064;-89
2022/04/04 20:36:49;;;;;;;6.57;5.72;;;8.50;99.90;;;;;;4984290;28;20035;-89
2022/04/04 20:39:15;;;;;;;9.80;5.47;;;8.40;99.90;;;;;;4995360;28;20098;-90
2022/04/04 20:41:43;;;;;;;6.72;5.57;;;8.30;99.90;;;;;;4970353;28;20023;-92
2022/04/04 20:44:09;;;;;;;7.97;5.63;;;8.30;99.90;;;;;;4989517;28;20528;-89
2022/04/04 20:46:36;;;;;;;8.43;5.65;;;8.20;99.90;;;;;;4965479;28;20062;-90
2022/04/04 20:49:09;;;;;;;10.25;6.22;;;8.10;99.90;;;;;;4961161;28;20089;-91
2022/04/04 20:51:35;;;;;;;10.15;6.65;;;8.00;99.90;;;;;;4960005;28;20390;-89
2022/04/04 20:54:02;;;;;;;7.45;6.75;;;8.00;99.90;;;;;;4958083;28;20037;-91
2022/04/04 20:56:31;;;;;;;10.60;6.55;;;7.90;99.90;;;;;;4965309;28;20544;-89
2022/04/04 20:58:57;;;;;;;9.43;6.07;;;7.90;99.90;;;;;;4962926;28;20022;-84
2022/04/04 21:01:26;;;;;;;9.60;6.38;;;7.80;99.90;;;;;;4970607;28;20030;-87
2022/04/04 21:03:53;;;;;;;10.15;6.32;;;7.80;99.90;;;;;;4969948;28;20114;-90
2022/04/04 21:06:28;;;;;;;6.30;5.70;;;7.70;99.90;;;;;;4982584;28;20010;-90
2022/04/04 21:09:10;;;;;;;;;;;;;;;;;;;;;
2022/04/04 21:11:41;;;;;;;8.43;6.50;;;7.60;99.90;;;;;;4967898;28;20064;-92
2022/04/04 21:14:08;;;;;;;12.30;6.55;;;7.60;99.90;;;;;;4957855;28;20055;-93